Aviston, Illinois
Current Conditions -  °F | °C
As of 3:58 AM on Friday 19 Dec 2014 (Local Time) from KBLV Reporting Station
Scattered Clouds Scattered Clouds  
Wind Chill: 27°   Ceiling: Unl
Heat Index: 27°   Visibility: 10mi
Dew Point: 26°   Wind: 0mph
Humidity: 98%   Direction: NA
Pressure: 30.28"   Gusts: NA
Location:  38.61°N, 89.61°W
Report Text: KBLV 190958Z AUTO 00000KT 10SM SCT032 M03/M03 A3028 RMK AO2 SLP262 T10281031
Loading
Personal Weather Stations






























Interactive Weather Map New forecast layout! Learn more

10-Day Weather Forecast

Advertisements
Track Severe Weather on mobile